Terminal Aerodrome Forecast
Issued by NWS

Home | Current Version | Previous Version | Text Only | Print | Product List | Glossary Off
Versions: 1 2 3 4 5 6 7 8 9 10 11 12 13 14 15 16 17 18 19 20 21 22 23 24

058
FTUS43 KLOT 201731
TAFMDW
TAF
KMDW 201731Z 2018/2118 22018G26KT P6SM SCT250
     FM210200 21016G24KT P6SM SCT200 WS015/22050KT
     FM211000 22013KT P6SM BKN150
     FM211500 26015G23KT P6SM BKN120
     FM211700 30016G23KT P6SM BKN100=

USA.gov is the U.S. government's official web portal to all federal, state and local government web resources and services.